Fitchburg, Wisconsin
Current Conditions -  °F | °C
As of 7:53 AM on Monday 20 Oct 2014 (Local Time) from KMSN Reporting Station
Scattered Clouds Scattered Clouds  
Wind Chill: 50°   Ceiling: Unl
Heat Index: 50°   Visibility: 10mi
Dew Point: 43°   Wind: 8mph
Humidity: 77%   Direction: 330°NNW
Pressure: 29.85"   Gusts: NA
Location:  43°N, 89.41°W
Report Text: KMSN 201253Z 33007KT 10SM SCT055 10/06 A2985 RMK AO2 SLP111 T01000061
Loading
Personal Weather Stations






























Interactive Weather Map
Tropical Storm Tracking
New forecast layout! Learn more

10-Day Weather Forecast

Advertisements
Track Severe Weather on mobile